Time;durP1;ratioP1;P1;durP2;ratioP2;P2;SDS_P1;SDS_P2;PMS_P1;PMS_P2;Temp;Humidity;BMP_temperature;BMP_pressure;BME280_temperature;BME280_humidity;BME280_pressure;Samples;Min_cycle;Max_cycle;Signal;HPM_P1;HPM_P2
2022/08/28 00:01:03;;;;;;;16.33;5.75;;;23.70;74.60;;;;;;5050192;28;20400;-70
2022/08/28 00:03:37;;;;;;;11.52;5.13;;;23.70;74.40;;;;;;5048799;28;20025;-71
2022/08/28 00:06:04;;;;;;;11.85;5.35;;;23.70;74.40;;;;;;5016308;28;20091;-71
2022/08/28 00:08:30;;;;;;;12.13;4.93;;;23.70;74.50;;;;;;5050118;28;20108;-71
2022/08/28 00:10:56;;;;;;;11.63;4.53;;;23.70;74.20;;;;;;5025281;28;20112;-71
2022/08/28 00:13:24;;;;;;;11.77;5.20;;;23.70;74.20;;;;;;5032443;28;20029;-70
2022/08/28 00:15:55;;;;;;;12.82;4.88;;;23.70;74.50;;;;;;5015582;28;20037;-71
2022/08/28 00:18:21;;;;;;;11.70;4.88;;;23.70;74.40;;;;;;5025732;28;20040;-70
2022/08/28 00:20:49;;;;;;;11.82;4.53;;;23.70;74.20;;;;;;5035058;28;20066;-70
2022/08/28 00:23:16;;;;;;;11.32;4.63;;;23.60;74.00;;;;;;5053024;28;20021;-71
2022/08/28 00:25:41;;;;;;;16.50;4.78;;;23.60;74.20;;;;;;5035368;28;20127;-71
2022/08/28 00:28:09;;;;;;;10.68;4.03;;;23.60;74.20;;;;;;5034987;28;20124;-71
2022/08/28 00:30:37;;;;;;;17.65;5.05;;;23.60;74.00;;;;;;5050257;28;20028;-71
2022/08/28 00:33:13;;;;;;;13.88;3.90;;;23.60;73.70;;;;;;5040608;28;20025;-71
2022/08/28 00:35:40;;;;;;;12.15;5.43;;;23.60;74.30;;;;;;5047635;28;20021;-71
2022/08/28 00:38:08;;;;;;;22.05;11.68;;;23.60;73.60;;;;;;5050734;28;20029;-77
2022/08/28 00:40:34;;;;;;;23.33;12.93;;;23.60;73.90;;;;;;5021019;28;20424;-76
2022/08/28 00:43:05;;;;;;;28.55;13.40;;;23.60;73.50;;;;;;5023234;28;20051;-76
2022/08/28 00:45:33;;;;;;;25.75;12.00;;;23.70;73.70;;;;;;5047592;28;20087;-77
2022/08/28 00:47:59;;;;;;;19.60;10.77;;;23.70;73.40;;;;;;5020349;28;20449;-76
2022/08/28 00:52:04;;;;;;;25.08;9.27;;;23.80;73.40;;;;;;5032359;28;20056;-76
2022/08/28 00:53:19;;;;;;;19.38;8.60;;;23.70;73.10;;;;;;5051901;28;20459;-76
2022/08/28 00:55:45;;;;;;;16.30;8.20;;;23.70;73.20;;;;;;5048410;22;20115;-75
2022/08/28 00:58:11;;;;;;;19.35;7.20;;;23.80;72.80;;;;;;5012442;28;20482;-75
2022/08/28 01:00:39;;;;;;;14.90;7.90;;;23.80;72.70;;;;;;5013996;28;20030;-75
2022/08/28 01:03:05;;;;;;;16.15;6.53;;;23.80;73.10;;;;;;5038593;28;20097;-75
2022/08/28 01:05:33;;;;;;;16.23;7.28;;;23.80;72.80;;;;;;5043286;28;20470;-75
2022/08/28 01:08:03;;;;;;;20.85;6.65;;;23.80;72.90;;;;;;5030439;28;20128;-75
2022/08/28 01:10:31;;;;;;;16.52;6.40;;;23.80;72.30;;;;;;5001969;28;20026;-76
2022/08/28 01:12:58;;;;;;;13.85;5.40;;;23.70;72.30;;;;;;5002046;28;20021;-76
2022/08/28 01:15:28;;;;;;;11.35;5.85;;;23.70;72.20;;;;;;4995320;28;20086;-75
2022/08/28 01:18:00;;;;;;;15.15;5.20;;;23.80;72.40;;;;;;5020892;28;20159;-75
2022/08/28 01:20:29;;;;;;;16.20;5.50;;;23.80;72.30;;;;;;5010008;28;20532;-76
2022/08/28 01:23:19;;;;;;;9.80;4.50;;;23.80;72.20;;;;;;5022480;28;20017;-75
2022/08/28 01:25:45;;;;;;;15.48;5.10;;;23.80;72.20;;;;;;5020401;28;20519;-76
2022/08/28 01:28:13;;;;;;;12.48;4.57;;;23.80;72.00;;;;;;5014253;28;20025;-75
2022/08/28 01:30:43;;;;;;;11.10;4.78;;;23.80;72.00;;;;;;5031650;28;20109;-75
2022/08/28 01:33:09;;;;;;;14.55;4.75;;;23.80;71.70;;;;;;5032026;28;20029;-75
2022/08/28 01:35:39;;;;;;;12.48;5.35;;;23.80;72.00;;;;;;5014516;28;20124;-76
2022/08/28 01:38:05;;;;;;;13.55;4.82;;;23.70;71.80;;;;;;4998100;28;20034;-75
2022/08/28 01:40:37;;;;;;;14.05;5.03;;;23.80;72.00;;;;;;5026854;28;20030;-76
2022/08/28 01:43:21;;;;;;;17.10;4.75;;;23.70;71.70;;;;;;5019576;28;20021;-76
2022/08/28 01:45:51;;;;;;;14.05;4.85;;;23.80;72.10;;;;;;5031618;28;20026;-76
2022/08/28 01:48:19;;;;;;;13.45;5.05;;;23.80;72.50;;;;;;5032658;28;20355;-76
2022/08/28 01:50:45;;;;;;;9.45;4.35;;;23.80;71.90;;;;;;5031482;28;20488;-77
2022/08/28 01:53:14;;;;;;;14.48;4.45;;;23.80;72.00;;;;;;5014094;28;20025;-76
2022/08/28 01:55:41;;;;;;;10.68;4.70;;;23.80;71.80;;;;;;5031277;28;20041;-75
2022/08/28 01:58:08;;;;;;;15.23;5.03;;;23.80;71.70;;;;;;5030973;28;20497;-75
2022/08/28 02:00:35;;;;;;;14.50;4.63;;;23.80;72.00;;;;;;4996412;28;20036;-75
2022/08/28 02:03:02;;;;;;;13.30;5.20;;;23.80;71.80;;;;;;4996820;28;20485;-75
2022/08/28 02:05:30;;;;;;;11.98;5.10;;;23.80;71.70;;;;;;5019985;28;20026;-75
2022/08/28 02:07:57;;;;;;;13.73;5.07;;;23.80;71.40;;;;;;5030349;28;20047;-74
2022/08/28 02:10:25;;;;;;;11.90;5.07;;;23.80;71.80;;;;;;5030115;28;20037;-74
2022/08/28 02:12:52;;;;;;;12.88;5.20;;;23.70;72.50;;;;;;5030358;28;20037;-74
2022/08/28 02:15:18;;;;;;;10.40;5.00;;;23.70;72.00;;;;;;5012504;28;20040;-74
2022/08/28 02:17:44;;;;;;;14.07;4.82;;;23.70;72.20;;;;;;5030337;28;20038;-74
2022/08/28 02:20:10;;;;;;;14.27;5.45;;;23.70;72.20;;;;;;5030477;28;20079;-75
2022/08/28 02:22:36;;;;;;;15.88;5.50;;;23.60;71.90;;;;;;5029428;28;20021;-75
2022/08/28 02:25:03;;;;;;;14.18;5.30;;;23.60;71.90;;;;;;5021056;28;20100;-75
2022/08/28 02:27:29;;;;;;;13.23;5.50;;;23.60;71.90;;;;;;5025042;28;20449;-76
2022/08/28 02:29:57;;;;;;;13.73;5.20;;;23.60;72.00;;;;;;5008877;28;20030;-76
2022/08/28 02:32:24;;;;;;;13.57;5.40;;;23.60;72.00;;;;;;5029840;28;20541;-75
2022/08/28 02:34:50;;;;;;;15.95;5.55;;;23.60;71.90;;;;;;5025447;28;20029;-75
2022/08/28 02:37:16;;;;;;;11.38;5.10;;;23.50;71.60;;;;;;5032869;28;20519;-75
2022/08/28 02:39:43;;;;;;;11.57;5.15;;;23.60;71.80;;;;;;5026860;28;20026;-75
2022/08/28 02:42:09;;;;;;;11.60;5.22;;;23.60;71.60;;;;;;5001207;28;20041;-75
2022/08/28 02:44:35;;;;;;;14.77;5.22;;;23.60;72.20;;;;;;5021215;28;20026;-76
2022/08/28 02:47:01;;;;;;;9.23;4.90;;;23.60;71.70;;;;;;4996243;28;20026;-77
2022/08/28 02:49:27;;;;;;;13.45;5.00;;;23.60;71.40;;;;;;5030046;28;20087;-76
2022/08/28 02:51:56;;;;;;;14.60;5.18;;;23.50;71.40;;;;;;5008672;28;20117;-75
2022/08/28 02:54:22;;;;;;;12.13;5.00;;;23.50;71.10;;;;;;5030743;28;20037;-76
2022/08/28 02:56:49;;;;;;;9.60;4.68;;;23.50;71.10;;;;;;4997305;28;1049742;-76
2022/08/28 02:59:15;;;;;;;12.63;4.70;;;23.50;70.90;;;;;;5031920;28;20039;-77
2022/08/28 03:01:41;;;;;;;14.15;4.72;;;23.50;70.70;;;;;;5016363;28;20021;-76
2022/08/28 03:04:06;;;;;;;10.32;4.10;;;23.60;71.00;;;;;;5016139;28;20560;-76
2022/08/28 03:06:32;;;;;;;13.00;4.43;;;23.60;70.40;;;;;;5024962;28;20028;-76
2022/08/28 03:08:58;;;;;;;11.35;4.07;;;23.60;70.60;;;;;;5032074;28;20021;-75
2022/08/28 03:11:25;;;;;;;13.93;4.72;;;23.70;70.50;;;;;;5012328;28;20037;-75
2022/08/28 03:13:51;;;;;;;10.57;3.65;;;23.70;70.60;;;;;;5007427;28;20030;-75
2022/08/28 03:16:17;;;;;;;14.80;4.50;;;23.60;70.50;;;;;;5015364;28;20018;-75
2022/08/28 03:18:44;;;;;;;12.13;4.00;;;23.60;69.70;;;;;;5028830;28;20029;-75
2022/08/28 03:21:10;;;;;;;11.95;4.00;;;23.60;70.40;;;;;;5006023;28;20041;-76
2022/08/28 03:23:36;;;;;;;10.73;4.30;;;23.70;70.30;;;;;;5014626;28;20017;-78
2022/08/28 03:26:11;;;;;;;13.15;4.40;;;23.60;70.10;;;;;;5031915;28;20167;-76
2022/08/28 03:28:44;;;;;;;10.20;4.07;;;23.70;69.80;;;;;;4999075;28;20017;-76
2022/08/28 03:31:13;;;;;;;13.23;3.95;;;23.60;69.70;;;;;;5030144;28;20032;-76
2022/08/28 03:33:40;;;;;;;9.88;3.80;;;23.60;69.50;;;;;;5027329;28;20482;-73
2022/08/28 03:36:08;;;;;;;10.27;3.90;;;23.70;69.70;;;;;;5026446;28;20386;-73
2022/08/28 03:38:34;;;;;;;13.93;3.97;;;23.70;69.50;;;;;;5009408;28;20034;-74
2022/08/28 03:41:00;;;;;;;9.85;4.00;;;23.60;69.90;;;;;;5029410;28;20032;-75
2022/08/28 03:43:27;;;;;;;9.90;3.45;;;23.60;69.50;;;;;;5026065;28;20388;-75
2022/08/28 03:46:04;;;;;;;14.15;4.10;;;23.60;69.50;;;;;;5030043;28;20539;-75
2022/08/28 03:48:35;;;;;;;15.65;4.22;;;23.60;69.50;;;;;;5008191;28;20032;-74
2022/08/28 03:51:10;;;;;;;10.45;3.65;;;23.60;69.90;;;;;;5015259;28;20083;-75
2022/08/28 03:53:36;;;;;;;12.07;3.72;;;23.60;69.20;;;;;;5026062;28;20504;-76
2022/08/28 03:56:09;;;;;;;12.68;3.97;;;23.60;68.60;;;;;;5006456;28;20048;-74
2022/08/28 03:58:35;;;;;;;13.80;3.88;;;23.60;68.50;;;;;;5025640;28;20051;-75
2022/08/28 04:01:01;;;;;;;11.02;4.15;;;23.60;68.40;;;;;;5030527;28;20072;-75
2022/08/28 04:03:27;;;;;;;14.50;4.10;;;23.60;68.20;;;;;;5007681;28;20053;-75
2022/08/28 04:05:53;;;;;;;11.55;3.90;;;23.60;68.10;;;;;;5014850;28;20473;-74
2022/08/28 04:08:21;;;;;;;9.88;3.80;;;23.60;68.00;;;;;;5028697;28;20021;-74
2022/08/28 04:10:48;;;;;;;11.13;3.70;;;23.60;68.30;;;;;;5026592;28;20105;-74
2022/08/28 04:13:15;;;;;;;10.63;3.47;;;23.60;68.10;;;;;;5023306;28;20030;-75
2022/08/28 04:15:41;;;;;;;8.77;3.05;;;23.60;68.00;;;;;;5030868;28;20029;-75
2022/08/28 04:18:08;;;;;;;13.88;3.97;;;23.60;68.10;;;;;;5032068;28;20029;-75
2022/08/28 04:20:34;;;;;;;16.15;4.07;;;23.60;68.00;;;;;;5024684;28;20025;-75
2022/08/28 04:23:02;;;;;;;8.75;3.42;;;23.60;67.80;;;;;;5023984;28;20548;-75
2022/08/28 04:25:30;;;;;;;9.95;3.85;;;23.60;67.90;;;;;;5032492;28;20029;-75
2022/08/28 04:27:56;;;;;;;8.98;3.58;;;23.60;67.80;;;;;;4979596;28;20390;-75
2022/08/28 04:30:22;;;;;;;11.45;4.07;;;23.60;67.30;;;;;;5013072;28;20026;-74
2022/08/28 04:32:49;;;;;;;9.10;3.33;;;23.50;67.60;;;;;;5018923;28;20029;-75
2022/08/28 04:35:15;;;;;;;13.00;4.10;;;23.60;67.40;;;;;;5015172;28;20048;-75
2022/08/28 04:37:42;;;;;;;14.02;3.75;;;23.50;67.20;;;;;;5032812;28;20106;-75
2022/08/28 04:40:10;;;;;;;12.27;4.25;;;23.50;67.30;;;;;;5032419;28;20064;-75
2022/08/28 04:42:39;;;;;;;14.93;3.83;;;23.50;67.40;;;;;;5015230;28;20030;-75
2022/08/28 04:45:06;;;;;;;12.02;3.20;;;23.50;67.20;;;;;;4982693;28;20036;-75
2022/08/28 04:47:37;;;;;;;13.32;3.53;;;23.50;66.90;;;;;;5032755;28;20025;-76
2022/08/28 04:50:05;;;;;;;13.05;3.38;;;23.50;66.80;;;;;;5014410;28;20022;-76
2022/08/28 04:52:31;;;;;;;15.40;3.80;;;23.50;66.90;;;;;;5009876;28;20025;-76
2022/08/28 04:54:57;;;;;;;14.40;3.90;;;23.50;66.60;;;;;;4977225;28;20033;-76
2022/08/28 04:57:23;;;;;;;13.85;4.20;;;23.50;66.70;;;;;;5030472;28;20451;-75
2022/08/28 04:59:48;;;;;;;14.35;3.53;;;23.50;66.60;;;;;;5030086;28;20053;-75
2022/08/28 05:02:14;;;;;;;11.98;3.55;;;23.50;66.40;;;;;;5005161;28;20030;-75
2022/08/28 05:04:40;;;;;;;21.70;4.00;;;23.40;66.40;;;;;;4999110;28;20029;-76
2022/08/28 05:07:06;;;;;;;12.98;3.50;;;23.50;66.20;;;;;;5024501;28;20022;-75
2022/08/28 05:09:33;;;;;;;12.23;3.70;;;23.50;66.20;;;;;;5029899;28;20037;-75
2022/08/28 05:12:03;;;;;;;12.80;3.40;;;23.50;66.30;;;;;;5030735;28;20022;-75
2022/08/28 05:14:30;;;;;;;12.68;4.05;;;23.50;66.20;;;;;;5010301;28;20032;-75
2022/08/28 05:16:57;;;;;;;19.60;3.92;;;23.50;66.50;;;;;;5029664;28;20424;-77
2022/08/28 05:19:24;;;;;;;14.70;3.70;;;23.50;66.30;;;;;;5029843;28;20492;-76
2022/08/28 05:21:51;;;;;;;13.10;3.95;;;23.50;66.10;;;;;;5030739;28;20464;-76
2022/08/28 05:24:17;;;;;;;14.48;4.28;;;23.40;66.00;;;;;;5028722;28;20029;-75
2022/08/28 05:26:43;;;;;;;13.38;3.83;;;23.50;65.80;;;;;;5029710;28;20029;-75
2022/08/28 05:29:10;;;;;;;13.38;3.60;;;23.50;65.90;;;;;;5008095;28;20034;-75
2022/08/28 05:31:37;;;;;;;21.92;3.75;;;23.40;66.00;;;;;;5030636;28;20053;-75
2022/08/28 05:34:04;;;;;;;13.32;3.90;;;23.50;65.40;;;;;;5027538;28;20413;-75
2022/08/28 05:36:36;;;;;;;17.80;3.90;;;23.40;65.50;;;;;;5005039;28;20076;-75
2022/08/28 05:39:06;;;;;;;10.95;3.28;;;23.40;65.20;;;;;;5026230;28;20029;-75
2022/08/28 05:41:32;;;;;;;16.45;3.58;;;23.40;65.10;;;;;;5030299;28;20021;-75
2022/08/28 05:44:00;;;;;;;14.52;3.88;;;23.40;65.10;;;;;;5015434;28;20056;-74
2022/08/28 05:46:29;;;;;;;14.30;3.25;;;23.40;65.10;;;;;;5028890;28;20078;-74
2022/08/28 05:48:56;;;;;;;18.15;3.88;;;23.40;65.20;;;;;;5030278;28;20029;-74
2022/08/28 05:51:25;;;;;;;14.55;3.80;;;23.40;65.20;;;;;;5025766;28;20037;-74
2022/08/28 05:53:51;;;;;;;15.07;3.38;;;23.40;65.20;;;;;;5023364;28;20032;-75
2022/08/28 05:56:21;;;;;;;14.35;3.60;;;23.40;65.30;;;;;;5028678;28;20037;-75
2022/08/28 05:58:47;;;;;;;14.73;3.63;;;23.30;65.20;;;;;;5027151;28;20213;-74
2022/08/28 06:01:18;;;;;;;15.02;3.95;;;23.40;65.10;;;;;;5025638;28;20048;-75
2022/08/28 06:03:50;;;;;;;14.68;3.55;;;23.40;65.00;;;;;;5028892;28;20474;-74
2022/08/28 06:06:16;;;;;;;15.68;3.85;;;23.40;64.80;;;;;;5035305;28;20075;-74
2022/08/28 06:08:41;;;;;;;16.98;3.80;;;23.40;65.00;;;;;;5029827;28;20049;-74
2022/08/28 06:11:07;;;;;;;14.00;3.83;;;23.40;65.00;;;;;;5033775;28;20400;-75
2022/08/28 06:13:34;;;;;;;11.98;3.60;;;23.40;64.80;;;;;;5023929;28;20060;-74
2022/08/28 06:16:00;;;;;;;12.80;3.60;;;23.40;64.80;;;;;;5013319;28;20067;-75
2022/08/28 06:18:26;;;;;;;14.88;3.70;;;23.40;65.00;;;;;;5017203;28;20017;-74
2022/08/28 06:20:53;;;;;;;16.38;3.80;;;23.40;64.80;;;;;;5030951;28;20428;-74
2022/08/28 06:23:20;;;;;;;14.38;3.95;;;23.40;64.90;;;;;;5030231;28;20075;-74
2022/08/28 06:25:50;;;;;;;13.70;3.75;;;23.40;64.80;;;;;;5013212;28;20029;-74
2022/08/28 06:28:21;;;;;;;13.70;3.75;;;23.30;64.80;;;;;;5027877;28;20392;-75
2022/08/28 06:30:48;;;;;;;14.85;4.00;;;23.40;64.80;;;;;;5032922;28;20384;-74
2022/08/28 06:33:15;;;;;;;14.75;3.65;;;23.40;64.50;;;;;;5012937;28;20049;-74
2022/08/28 06:35:48;;;;;;;15.73;3.17;;;23.30;64.40;;;;;;5028703;28;20021;-75
2022/08/28 06:38:15;;;;;;;14.65;4.40;;;23.30;64.20;;;;;;5025729;28;20025;-75
2022/08/28 06:40:46;;;;;;;12.68;3.78;;;23.30;64.50;;;;;;5032667;28;20018;-74
2022/08/28 06:43:14;;;;;;;12.93;3.60;;;23.30;64.40;;;;;;5007712;28;20033;-74
2022/08/28 06:45:46;;;;;;;14.20;3.85;;;23.30;64.10;;;;;;5016162;28;20026;-75
2022/08/28 06:48:16;;;;;;;14.43;4.10;;;23.30;64.20;;;;;;5008088;28;20030;-75
2022/08/28 06:50:45;;;;;;;16.20;4.07;;;23.30;64.30;;;;;;5012360;28;20033;-76
2022/08/28 06:53:13;;;;;;;15.57;3.83;;;23.30;64.10;;;;;;5040486;28;20060;-75
2022/08/28 06:55:39;;;;;;;17.92;3.83;;;23.30;64.30;;;;;;5047985;22;20005;-77
2022/08/28 06:58:06;;;;;;;16.05;3.80;;;23.30;64.10;;;;;;5042906;28;20045;-77
2022/08/28 07:00:34;;;;;;;14.05;4.13;;;23.30;64.10;;;;;;5022784;28;20025;-76
2022/08/28 07:03:01;;;;;;;14.15;4.25;;;23.30;64.10;;;;;;5015081;28;20116;-77
2022/08/28 07:05:27;;;;;;;9.52;3.50;;;23.30;64.00;;;;;;5051884;28;20186;-77
2022/08/28 07:07:54;;;;;;;14.50;3.60;;;23.30;64.10;;;;;;5053480;28;20104;-77
2022/08/28 07:10:20;;;;;;;13.80;3.75;;;23.30;64.00;;;;;;5052179;28;20438;-76
2022/08/28 07:12:49;;;;;;;13.15;3.75;;;23.30;64.10;;;;;;5052901;28;20056;-76
2022/08/28 07:15:16;;;;;;;12.95;3.78;;;23.30;64.00;;;;;;5053631;28;20025;-77
2022/08/28 07:17:41;;;;;;;14.00;3.97;;;23.30;64.00;;;;;;5053358;28;20028;-77
2022/08/28 07:20:09;;;;;;;14.48;4.05;;;23.30;63.90;;;;;;5044625;28;20033;-76
2022/08/28 07:22:35;;;;;;;14.90;3.70;;;23.30;63.90;;;;;;5037111;28;20052;-77
2022/08/28 07:25:01;;;;;;;10.32;3.22;;;23.30;64.10;;;;;;5035602;28;20063;-77
2022/08/28 07:27:27;;;;;;;12.80;3.80;;;23.30;64.20;;;;;;5036559;28;20504;-78
2022/08/28 07:29:52;;;;;;;12.88;3.47;;;23.30;64.30;;;;;;5054225;28;20040;-77
2022/08/28 07:32:20;;;;;;;13.85;3.90;;;23.30;64.40;;;;;;5041061;28;20361;-77
2022/08/28 07:34:47;;;;;;;14.85;4.15;;;23.30;64.20;;;;;;5019335;28;20029;-78
2022/08/28 07:37:16;;;;;;;16.75;4.28;;;23.30;63.90;;;;;;5049732;28;20033;-78
2022/08/28 07:39:43;;;;;;;15.63;3.78;;;23.30;64.00;;;;;;5049443;28;20025;-77
2022/08/28 07:44:47;;;;;;;15.80;4.40;;;23.30;63.90;;;;;;5052285;28;20029;-78
2022/08/28 07:44:58;;;;;;;15.13;4.60;;;23.30;63.70;;;;;;5052699;28;20064;-78
2022/08/28 07:47:29;;;;;;;16.00;3.75;;;23.30;63.70;;;;;;5043511;28;20443;-77
2022/08/28 07:49:56;;;;;;;15.40;3.45;;;23.30;64.00;;;;;;5048965;28;20489;-77
2022/08/28 07:52:22;;;;;;;14.45;4.13;;;23.30;63.80;;;;;;5051833;28;20128;-78
2022/08/28 07:54:48;;;;;;;12.48;3.63;;;23.30;63.60;;;;;;5034723;28;20159;-77
2022/08/28 07:57:15;;;;;;;21.55;4.55;;;23.30;63.80;;;;;;5050404;28;20051;-76
2022/08/28 07:59:41;;;;;;;16.95;4.57;;;23.30;63.70;;;;;;5044322;28;20075;-77
2022/08/28 08:02:09;;;;;;;12.70;3.60;;;23.30;63.60;;;;;;5017114;28;20017;-77
2022/08/28 08:04:35;;;;;;;14.40;4.10;;;23.30;64.10;;;;;;5050830;28;20032;-77
2022/08/28 08:07:02;;;;;;;13.90;3.78;;;23.30;63.80;;;;;;5037869;28;20053;-77
2022/08/28 08:09:28;;;;;;;11.55;3.67;;;23.30;63.80;;;;;;5020063;28;20371;-77
2022/08/28 08:11:55;;;;;;;10.75;3.40;;;23.30;63.90;;;;;;5044921;28;20050;-77
2022/08/28 08:14:21;;;;;;;16.77;4.75;;;23.30;64.00;;;;;;5053072;28;20021;-77
2022/08/28 08:16:47;;;;;;;15.27;3.90;;;23.30;64.20;;;;;;5035361;28;20025;-77
2022/08/28 08:19:14;;;;;;;15.73;4.10;;;23.30;63.90;;;;;;5035145;28;20032;-77
2022/08/28 08:21:42;;;;;;;16.60;4.40;;;23.30;63.70;;;;;;5024257;28;20052;-77
2022/08/28 08:24:09;;;;;;;16.60;4.13;;;23.30;63.50;;;;;;5034354;28;20107;-79
2022/08/28 08:26:35;;;;;;;13.70;3.47;;;23.30;63.40;;;;;;5047048;28;20024;-78
2022/08/28 08:29:01;;;;;;;14.68;3.97;;;23.30;63.30;;;;;;5033392;28;20316;-79
2022/08/28 08:31:31;;;;;;;15.73;4.28;;;23.30;63.60;;;;;;5043577;28;20021;-73
2022/08/28 08:34:00;;;;;;;13.80;3.92;;;23.30;63.80;;;;;;5051755;28;20021;-73
2022/08/28 08:36:27;;;;;;;12.97;4.00;;;23.30;63.40;;;;;;5042958;28;20071;-73
2022/08/28 08:38:54;;;;;;;14.77;4.07;;;23.20;62.70;;;;;;5027969;28;20029;-73
2022/08/28 08:41:33;;;;;;;20.70;3.95;;;23.10;62.60;;;;;;5038550;28;20113;-73
2022/08/28 08:44:14;;;;;;;11.73;3.42;;;23.10;63.30;;;;;;5042727;28;20539;-73
2022/08/28 08:46:45;;;;;;;14.02;4.47;;;23.00;63.30;;;;;;5033909;28;20021;-73
2022/08/28 08:49:24;;;;;;;15.25;3.85;;;23.00;63.40;;;;;;5031937;28;20032;-72
2022/08/28 08:52:24;;;;;;;18.25;4.13;;;22.90;63.60;;;;;;5049124;28;20028;-73
2022/08/28 08:55:19;;;;;;;13.85;4.03;;;22.90;63.70;;;;;;5042577;28;20029;-73
2022/08/28 08:57:50;;;;;;;13.88;3.65;;;22.90;63.60;;;;;;5045444;28;20029;-73
2022/08/28 09:00:17;;;;;;;16.60;4.15;;;22.80;63.50;;;;;;5032371;28;20484;-73
2022/08/28 09:03:04;;;;;;;14.07;4.10;;;22.80;63.40;;;;;;5031243;28;20029;-73
2022/08/28 09:05:56;;;;;;;15.95;4.60;;;22.80;63.70;;;;;;5049449;28;20056;-73
2022/08/28 09:08:43;;;;;;;17.88;4.40;;;22.80;63.70;;;;;;5050411;28;20480;-73
2022/08/28 09:11:27;;;;;;;16.23;4.60;;;22.80;63.70;;;;;;5008891;28;20494;-73
2022/08/28 09:14:44;;;;;;;14.60;4.30;;;22.80;64.00;;;;;;5043190;28;20044;-73
2022/08/28 09:17:14;;;;;;;16.08;4.47;;;22.80;64.40;;;;;;5017945;28;20048;-73
2022/08/28 09:19:40;;;;;;;15.35;3.63;;;22.90;64.50;;;;;;5050252;28;20448;-73
2022/08/28 09:22:06;;;;;;;14.32;4.22;;;22.90;64.70;;;;;;5048013;28;20374;-73
2022/08/28 09:24:35;;;;;;;19.23;5.00;;;22.80;64.60;;;;;;5050973;28;20059;-73
2022/08/28 09:27:06;;;;;;;12.13;4.13;;;22.80;64.50;;;;;;5050636;28;20116;-73
2022/08/28 09:29:39;;;;;;;21.80;7.45;;;22.80;64.40;;;;;;5028592;28;20367;-73
2022/08/28 09:32:29;;;;;;;20.75;5.45;;;22.80;64.50;;;;;;5017613;28;20080;-72
2022/08/28 09:35:17;;;;;;;14.07;4.97;;;22.80;64.30;;;;;;5027544;28;20050;-72
2022/08/28 09:37:46;;;;;;;13.95;4.45;;;22.90;63.80;;;;;;5044887;28;20029;-73
2022/08/28 09:40:23;;;;;;;17.40;4.88;;;22.80;63.90;;;;;;5042749;28;20026;-72
2022/08/28 09:43:30;;;;;;;20.83;5.35;;;22.90;63.90;;;;;;5037133;28;20033;-73
2022/08/28 09:46:18;;;;;;;19.27;4.68;;;22.90;64.00;;;;;;5043545;28;20052;-72
2022/08/28 09:48:47;;;;;;;18.33;4.80;;;22.90;64.20;;;;;;5038738;28;20108;-72
2022/08/28 09:51:28;;;;;;;21.38;8.48;;;22.90;64.70;;;;;;5051682;28;20025;-72
2022/08/28 09:53:58;;;;;;;25.00;12.48;;;22.90;64.50;;;;;;5050836;28;20191;-72
2022/08/28 09:56:35;;;;;;;22.60;11.10;;;22.90;64.20;;;;;;5031684;28;20060;-72
2022/08/28 09:59:06;;;;;;;21.13;9.85;;;23.00;64.30;;;;;;5031330;28;20033;-72
2022/08/28 10:01:40;;;;;;;23.23;9.27;;;23.00;64.30;;;;;;5031523;28;20504;-72
2022/08/28 10:04:25;;;;;;;28.15;8.65;;;23.00;64.40;;;;;;5029290;28;20472;-73
2022/08/28 10:07:02;;;;;;;23.27;7.88;;;23.00;64.60;;;;;;5036285;28;20444;-73
2022/08/28 10:09:35;;;;;;;18.77;7.05;;;23.00;64.50;;;;;;5047340;28;20484;-72
2022/08/28 10:12:12;;;;;;;22.58;6.70;;;23.10;64.70;;;;;;5048280;28;20048;-72
2022/08/28 10:14:53;;;;;;;16.73;6.78;;;23.10;64.70;;;;;;5049093;28;20059;-74
2022/08/28 10:17:19;;;;;;;22.75;6.10;;;23.10;65.40;;;;;;5047548;28;20032;-73
2022/08/28 10:20:15;;;;;;;27.58;6.32;;;23.20;64.70;;;;;;5033141;28;20033;-73
2022/08/28 10:23:05;;;;;;;25.17;5.90;;;23.20;65.00;;;;;;5043055;28;20079;-73
2022/08/28 10:25:42;;;;;;;;;;;23.10;64.90;;;;;;5041650;28;20029;-73
2022/08/28 10:28:40;;;;;;;26.73;16.58;;;23.20;64.80;;;;;;5032296;28;20019;-73
2022/08/28 10:31:45;;;;;;;26.67;16.33;;;23.20;64.70;;;;;;5017856;28;20075;-74
2022/08/28 10:34:27;;;;;;;29.13;16.55;;;23.20;64.90;;;;;;4963868;28;20503;-73
2022/08/28 10:40:11;;;;;;;21.00;12.40;;;23.10;64.80;;;;;;5047630;28;20032;-72
2022/08/28 10:42:45;;;;;;;20.85;10.65;;;23.20;64.90;;;;;;5043267;28;20031;-75
2022/08/28 10:45:22;;;;;;;19.63;8.85;;;23.10;64.90;;;;;;5039603;28;20029;-75
2022/08/28 10:47:55;;;;;;;15.35;7.63;;;23.10;65.10;;;;;;5022706;28;20029;-75
2022/08/28 10:50:27;;;;;;;25.35;6.97;;;23.00;65.50;;;;;;5019969;28;20030;-74
2022/08/28 10:53:01;;;;;;;18.48;5.78;;;23.00;65.40;;;;;;5051092;28;20029;-75
2022/08/28 10:55:38;;;;;;;20.88;5.90;;;22.80;65.20;;;;;;5046503;28;20041;-75
2022/08/28 10:58:07;;;;;;;16.67;5.88;;;22.80;65.70;;;;;;5044446;28;20037;-73
2022/08/28 11:00:34;;;;;;;19.63;4.97;;;22.90;65.60;;;;;;5039318;28;20057;-74
2022/08/28 11:03:07;;;;;;;20.05;5.90;;;22.90;65.40;;;;;;5051169;28;20278;-74
2022/08/28 11:05:55;;;;;;;12.35;5.10;;;23.00;65.40;;;;;;5054408;28;20021;-74
2022/08/28 11:08:29;;;;;;;23.38;4.80;;;23.00;65.30;;;;;;5036619;28;20025;-74
2022/08/28 11:11:00;;;;;;;19.17;5.25;;;22.90;65.40;;;;;;5054456;28;20025;-74
2022/08/28 11:13:57;;;;;;;13.35;4.65;;;22.90;65.40;;;;;;5054335;28;20086;-74
2022/08/28 11:16:35;;;;;;;12.40;4.50;;;22.90;65.30;;;;;;5036787;28;20066;-74
2022/08/28 11:19:45;;;;;;;18.42;5.30;;;22.90;65.50;;;;;;5053839;28;20037;-74
2022/08/28 11:22:33;;;;;;;25.10;12.70;;;22.90;65.40;;;;;;5039277;28;20025;-74
2022/08/28 11:25:25;;;;;;;21.02;8.30;;;23.00;65.30;;;;;;5054602;28;20020;-74
2022/08/28 11:28:22;;;;;;;23.70;10.00;;;23.00;65.20;;;;;;5054307;28;20021;-75
2022/08/28 11:30:57;;;;;;;23.25;8.95;;;23.00;65.30;;;;;;5053571;28;20493;-75
2022/08/28 11:33:47;;;;;;;21.55;8.57;;;23.10;65.20;;;;;;5036197;28;20425;-75
2022/08/28 11:36:19;;;;;;;20.40;7.32;;;23.10;65.30;;;;;;5053993;28;20158;-75
2022/08/28 11:38:45;;;;;;;17.02;6.80;;;23.10;65.20;;;;;;5053571;28;20257;-74
2022/08/28 11:41:21;;;;;;;17.73;7.45;;;23.20;65.30;;;;;;5053854;28;20122;-75
2022/08/28 11:44:09;;;;;;;14.82;7.05;;;23.20;65.30;;;;;;5053761;28;20017;-75
2022/08/28 11:46:42;;;;;;;22.95;7.32;;;23.20;65.30;;;;;;5053800;28;20530;-74
2022/08/28 11:49:33;;;;;;;18.30;8.60;;;23.20;65.30;;;;;;5053339;28;20033;-74
2022/08/28 11:52:10;;;;;;;19.50;7.68;;;23.20;65.30;;;;;;5053517;28;20024;-75
2022/08/28 11:54:45;;;;;;;15.80;7.50;;;23.30;65.40;;;;;;5053728;28;20527;-75
2022/08/28 11:57:23;;;;;;;22.38;7.45;;;23.20;65.50;;;;;;5035871;28;20090;-75
2022/08/28 12:00:02;;;;;;;20.80;7.18;;;23.30;65.50;;;;;;5052574;28;20048;-75
2022/08/28 12:02:39;;;;;;;14.48;6.90;;;23.30;65.50;;;;;;5053625;28;20026;-74
2022/08/28 12:05:05;;;;;;;21.33;7.22;;;23.20;65.50;;;;;;5053412;28;20047;-75
2022/08/28 12:07:45;;;;;;;13.95;6.32;;;23.30;65.60;;;;;;5053278;28;20383;-74
2022/08/28 12:10:24;;;;;;;21.75;7.60;;;23.30;65.60;;;;;;5053087;28;20025;-75
2022/08/28 12:12:57;;;;;;;20.15;7.00;;;23.30;65.60;;;;;;5018980;28;20139;-74
2022/08/28 12:15:26;;;;;;;17.50;7.40;;;23.30;65.70;;;;;;5035453;28;20033;-75
2022/08/28 12:18:10;;;;;;;14.52;6.70;;;23.30;65.80;;;;;;5053206;28;20358;-75
2022/08/28 12:20:59;;;;;;;18.42;7.13;;;23.30;65.70;;;;;;5034896;28;20040;-75
2022/08/28 12:23:58;;;;;;;14.63;6.47;;;23.30;65.80;;;;;;5035223;28;20033;-75
2022/08/28 12:26:29;;;;;;;15.40;6.57;;;23.30;65.80;;;;;;5053079;28;20021;-76
2022/08/28 12:29:00;;;;;;;19.10;7.10;;;23.30;65.90;;;;;;5052560;28;20028;-75
2022/08/28 12:32:12;;;;;;;14.82;6.40;;;23.30;65.80;;;;;;5053182;28;20033;-76
2022/08/28 12:34:50;;;;;;;15.10;6.65;;;23.30;65.90;;;;;;5034761;28;20071;-76
2022/08/28 12:37:42;;;;;;;14.63;6.65;;;23.30;66.20;;;;;;5034949;28;20033;-74
2022/08/28 12:40:24;;;;;;;21.15;6.53;;;23.30;66.10;;;;;;5052431;28;20036;-75
2022/08/28 12:42:57;;;;;;;20.25;7.18;;;23.30;65.90;;;;;;5052781;28;20027;-75
2022/08/28 12:45:31;;;;;;;16.67;6.85;;;23.40;66.20;;;;;;5017043;28;20025;-75
2022/08/28 12:48:01;;;;;;;19.95;6.82;;;23.30;66.10;;;;;;5033539;28;20041;-75
2022/08/28 12:50:44;;;;;;;16.55;7.18;;;23.40;66.10;;;;;;5032307;28;20029;-76
2022/08/28 12:53:15;;;;;;;19.20;6.75;;;23.40;66.30;;;;;;5032653;28;20033;-75
2022/08/28 12:58:27;;;;;;;19.83;6.65;;;23.40;66.10;;;;;;4995123;28;20069;-73
2022/08/28 13:00:58;;;;;;;19.63;7.10;;;23.40;66.40;;;;;;5031836;28;20022;-73
2022/08/28 13:03:24;;;;;;;22.98;7.07;;;23.40;66.40;;;;;;4995133;28;20033;-73
2022/08/28 13:06:02;;;;;;;27.88;7.00;;;23.40;66.50;;;;;;5012333;28;20426;-74